St. Day, United Kingdom
Current Conditions -  °F | °C
As of 7:50 AM on Thursday 18 Dec 2014 (Local Time) from EGDR Reporting Station
Drizzle Drizzle  
Wind Chill: 11°   Ceiling: 300
Heat Index: 11°   Visibility: 1.2mi
Dew Point: 11°   Wind: 16mph
Humidity: 100%   Direction: 250°WSW
Pressure: 30"   Gusts: 31mph
Location:  50.24°N, 5.19°W
Report Text: EGDR 180750Z 25014G27KT 2000 -DZ FEW002 BKN003 OVC006 11/11 Q1016 YLO2 TEMPO 1500 DZ FEW001 SCT002 BKN003 AMB
Loading
Personal Weather Stations






























Interactive Weather Map New forecast layout! Learn more

10-Day Weather Forecast

Advertisements
Track Severe Weather on mobile